createdAt,value
2017-06-01T00:01:14.356Z,87.40
2017-06-01T00:03:43.618Z,86.70
2017-06-01T00:06:12.768Z,87.00
2017-06-01T00:08:41.961Z,87.90
2017-06-01T00:11:11.295Z,87.40
2017-06-01T00:13:40.495Z,89.50
2017-06-01T00:16:09.723Z,90.10
2017-06-01T00:18:38.932Z,90.70
2017-06-01T00:21:08.175Z,91.00
2017-06-01T00:23:37.395Z,91.00
2017-06-01T00:26:06.692Z,91.10
2017-06-01T00:28:35.902Z,91.00
2017-06-01T00:31:05.097Z,90.50
2017-06-01T00:33:34.995Z,90.70
2017-06-01T00:36:04.261Z,90.80
2017-06-01T00:38:33.547Z,90.60
2017-06-01T00:41:02.859Z,91.60
2017-06-01T00:43:32.087Z,91.20
2017-06-01T00:46:01.296Z,91.10
2017-06-01T00:48:30.519Z,90.70
2017-06-01T00:50:59.732Z,90.90
2017-06-01T00:53:28.956Z,91.20
2017-06-01T00:55:58.158Z,91.60
2017-06-01T00:58:27.391Z,91.20
2017-06-01T01:00:56.584Z,91.10
2017-06-01T01:03:25.840Z,91.60
2017-06-01T01:05:55.051Z,92.20
2017-06-01T01:08:24.259Z,92.20
2017-06-01T01:10:53.515Z,92.10
2017-06-01T01:13:22.792Z,91.70
2017-06-01T01:15:51.988Z,91.40
2017-06-01T01:18:21.212Z,91.60
2017-06-01T01:20:50.451Z,91.90
2017-06-01T01:23:19.788Z,92.40
2017-06-01T01:25:49.000Z,92.50
2017-06-01T01:28:18.204Z,93.00
2017-06-01T01:30:47.087Z,93.10
2017-06-01T01:33:16.279Z,93.20
2017-06-01T01:35:44.798Z,93.10
2017-06-01T01:38:13.419Z,92.80
2017-06-01T01:40:41.941Z,92.90
2017-06-01T01:43:11.216Z,92.80
2017-06-01T01:45:40.091Z,92.90
2017-06-01T01:48:08.604Z,93.10
2017-06-01T01:50:37.139Z,93.30
2017-06-01T01:53:05.639Z,93.50
2017-06-01T01:55:34.172Z,93.80
2017-06-01T01:58:02.770Z,93.60
2017-06-01T02:00:32.331Z,93.60
2017-06-01T02:03:01.190Z,93.50
2017-06-01T02:05:30.051Z,93.70
2017-06-01T02:07:58.927Z,94.20
2017-06-01T02:10:27.446Z,94.50
2017-06-01T02:12:56.323Z,94.90
2017-06-01T02:15:25.544Z,94.80
2017-06-01T02:17:54.051Z,94.70
2017-06-01T02:20:22.932Z,94.50
2017-06-01T02:22:51.784Z,94.40
2017-06-01T02:25:21.008Z,94.20
2017-06-01T02:27:50.206Z,94.30
2017-06-01T02:30:19.052Z,94.20
2017-06-01T02:32:47.595Z,93.90
2017-06-01T02:35:16.840Z,94.20
2017-06-01T02:37:45.353Z,95.10
2017-06-01T02:40:14.562Z,94.50
2017-06-01T02:42:43.317Z,94.60
2017-06-01T02:45:12.519Z,94.50
2017-06-01T02:47:41.064Z,94.60
2017-06-01T02:50:10.298Z,94.80
2017-06-01T02:52:39.510Z,95.00
2017-06-01T02:55:08.804Z,95.30
2017-06-01T02:57:37.639Z,95.40
2017-06-01T03:00:06.526Z,95.40
2017-06-01T03:02:35.395Z,95.50
2017-06-01T03:05:04.251Z,95.30
2017-06-01T03:07:33.131Z,95.10
2017-06-01T03:10:01.764Z,95.00
2017-06-01T03:12:30.623Z,95.00
2017-06-01T03:14:59.842Z,95.60
2017-06-01T03:17:28.365Z,96.00
2017-06-01T03:19:57.251Z,95.40
2017-06-01T03:22:27.088Z,95.00
2017-06-01T03:24:55.959Z,94.90
2017-06-01T03:27:24.804Z,95.00
2017-06-01T03:29:53.403Z,95.00
2017-06-01T03:32:22.607Z,94.80
2017-06-01T03:34:51.482Z,95.20
2017-06-01T03:37:20.000Z,95.20
2017-06-01T03:39:48.871Z,95.00
2017-06-01T03:42:18.071Z,94.50
2017-06-01T03:44:47.277Z,94.60
2017-06-01T03:47:16.496Z,94.80
2017-06-01T03:49:45.699Z,95.00
2017-06-01T03:52:14.916Z,94.60
2017-06-01T03:54:44.124Z,94.80
2017-06-01T03:57:13.003Z,94.80
2017-06-01T03:59:42.208Z,94.80
2017-06-01T04:02:11.415Z,94.40
2017-06-01T04:04:40.290Z,94.80
2017-06-01T04:07:09.149Z,95.10
2017-06-01T04:09:38.131Z,95.10
2017-06-01T04:12:07.011Z,95.00
2017-06-01T04:14:35.856Z,94.80
2017-06-01T04:17:04.363Z,94.60
2017-06-01T04:19:33.343Z,94.10
2017-06-01T04:22:02.233Z,94.50
2017-06-01T04:24:31.069Z,94.60
2017-06-01T04:27:00.269Z,94.90
2017-06-01T04:29:29.711Z,95.20
2017-06-01T04:31:59.011Z,95.00
2017-06-01T04:34:28.225Z,94.60
2017-06-01T04:36:57.443Z,94.00
2017-06-01T04:39:26.663Z,94.50
2017-06-01T04:41:55.858Z,94.50
2017-06-01T04:44:25.078Z,93.90
2017-06-01T04:46:54.297Z,93.80
2017-06-01T04:49:23.166Z,93.30
2017-06-01T04:51:52.031Z,92.80
2017-06-01T04:54:21.240Z,92.90
2017-06-01T04:56:50.095Z,92.40
2017-06-01T04:59:19.304Z,92.60
2017-06-01T05:01:48.539Z,92.50
2017-06-01T05:04:17.859Z,92.30
2017-06-01T05:06:47.139Z,92.10
2017-06-01T05:09:16.373Z,91.50
2017-06-01T05:11:45.739Z,91.60
2017-06-01T05:14:14.948Z,92.90
2017-06-01T05:16:44.151Z,91.80
2017-06-01T05:19:13.375Z,90.90
2017-06-01T05:21:42.574Z,90.50
2017-06-01T05:24:11.787Z,89.30
2017-06-01T05:26:41.012Z,89.60
2017-06-01T05:29:10.243Z,87.50
2017-06-01T05:31:39.511Z,86.80
2017-06-01T05:34:08.706Z,86.20
2017-06-01T05:36:37.920Z,83.40
2017-06-01T05:39:07.165Z,84.60
2017-06-01T05:41:36.380Z,81.20
2017-06-01T05:44:06.291Z,81.20
2017-06-01T05:46:35.513Z,82.80
2017-06-01T05:49:04.769Z,83.30
2017-06-01T05:51:33.994Z,84.30
2017-06-01T05:54:03.211Z,80.50
2017-06-01T05:56:32.419Z,75.70
2017-06-01T05:59:01.632Z,74.10
2017-06-01T06:01:30.852Z,73.10
2017-06-01T06:04:00.061Z,71.50
2017-06-01T06:06:29.276Z,73.20
2017-06-01T06:08:58.493Z,71.70
2017-06-01T06:11:27.692Z,72.10
2017-06-01T06:13:56.982Z,75.50
2017-06-01T06:16:26.163Z,71.70
2017-06-01T06:18:55.359Z,72.90
2017-06-01T06:21:24.578Z,71.30
2017-06-01T06:23:53.823Z,66.70
2017-06-01T06:26:23.008Z,67.70
2017-06-01T06:28:52.235Z,70.40
2017-06-01T06:31:21.443Z,68.90
2017-06-01T06:33:51.459Z,68.50
2017-06-01T06:36:20.371Z,69.60
2017-06-01T06:38:49.567Z,66.80
2017-06-01T06:41:18.776Z,68.10
2017-06-01T06:43:47.997Z,66.60
2017-06-01T06:46:16.439Z,66.50
2017-06-01T06:48:44.891Z,65.20
2017-06-01T06:51:14.155Z,65.80
2017-06-01T06:53:43.466Z,67.10
2017-06-01T06:56:12.678Z,65.60
2017-06-01T06:58:42.073Z,65.50
2017-06-01T07:01:11.280Z,67.30
2017-06-01T07:03:41.209Z,66.60
2017-06-01T07:06:10.404Z,68.30
2017-06-01T07:08:39.625Z,63.40
2017-06-01T07:11:08.846Z,60.20
2017-06-01T07:13:38.071Z,63.40
2017-06-01T07:16:07.317Z,63.60
2017-06-01T07:18:36.515Z,67.40
2017-06-01T07:21:05.781Z,64.70
2017-06-01T07:23:34.975Z,66.00
2017-06-01T07:26:04.191Z,63.80
2017-06-01T07:28:33.451Z,64.20
2017-06-01T07:31:02.676Z,61.30
2017-06-01T07:33:32.052Z,62.90
2017-06-01T07:36:01.264Z,65.30
2017-06-01T07:38:31.164Z,63.90
2017-06-01T07:41:00.362Z,59.10
2017-06-01T07:43:29.586Z,60.90
2017-06-01T07:45:58.782Z,60.70
2017-06-01T07:48:27.970Z,61.20
2017-06-01T07:50:57.196Z,60.70
2017-06-01T07:53:26.400Z,59.40
2017-06-01T07:55:55.619Z,60.30
2017-06-01T07:58:24.819Z,57.90
2017-06-01T08:00:54.041Z,59.30
2017-06-01T08:03:23.260Z,59.80
2017-06-01T08:05:52.452Z,60.10
2017-06-01T08:08:21.680Z,57.40
2017-06-01T08:10:50.901Z,58.30
2017-06-01T08:13:20.112Z,57.80
2017-06-01T08:15:48.553Z,57.80
2017-06-01T08:18:16.993Z,58.40
2017-06-01T08:20:46.273Z,57.20
2017-06-01T08:23:15.483Z,56.40
2017-06-01T08:25:44.701Z,58.00
2017-06-01T08:28:13.900Z,56.60
2017-06-01T08:30:43.112Z,57.90
2017-06-01T08:33:12.327Z,57.60
2017-06-01T08:35:41.603Z,57.50
2017-06-01T08:38:10.832Z,58.40
2017-06-01T08:40:40.004Z,58.50
2017-06-01T08:43:09.213Z,59.30
2017-06-01T08:45:37.655Z,59.30
2017-06-01T08:48:06.106Z,64.50
2017-06-01T08:50:35.303Z,61.30
2017-06-01T08:53:04.521Z,58.60
2017-06-01T08:55:33.732Z,55.90
2017-06-01T08:58:02.175Z,55.20
2017-06-01T09:00:31.390Z,57.40
2017-06-01T09:03:00.599Z,58.50
2017-06-01T09:05:29.023Z,58.40
2017-06-01T09:07:58.239Z,58.10
2017-06-01T09:10:26.688Z,58.10
2017-06-01T09:12:55.952Z,57.00
2017-06-01T09:15:25.164Z,58.10
2017-06-01T09:17:53.635Z,59.10
2017-06-01T09:20:22.848Z,54.90
2017-06-01T09:22:52.068Z,52.40
2017-06-01T09:25:21.279Z,50.70
2017-06-01T09:27:49.763Z,50.60
2017-06-01T09:30:18.221Z,51.30
2017-06-01T09:32:47.452Z,50.10
2017-06-01T09:35:15.920Z,50.10
2017-06-01T09:37:45.142Z,49.50
2017-06-01T09:40:13.591Z,49.50
2017-06-01T09:42:42.772Z,50.20
2017-06-01T09:45:11.249Z,50.10
2017-06-01T09:47:40.553Z,49.80
2017-06-01T09:50:09.765Z,49.00
2017-06-01T09:52:38.983Z,49.20
2017-06-01T09:55:08.203Z,50.00
2017-06-01T09:57:37.411Z,47.90
2017-06-01T10:00:06.608Z,48.80
2017-06-01T10:02:35.823Z,50.80
2017-06-01T10:05:05.061Z,49.10
2017-06-01T10:07:34.272Z,48.70
2017-06-01T10:10:02.724Z,48.60
2017-06-01T10:12:31.919Z,49.80
2017-06-01T10:15:01.156Z,51.50
2017-06-01T10:17:30.354Z,48.70
2017-06-01T10:19:59.552Z,48.60
2017-06-01T10:22:28.773Z,50.00
2017-06-01T10:24:57.969Z,46.30
2017-06-01T10:27:27.180Z,47.50
2017-06-01T10:29:55.641Z,47.40
2017-06-01T10:32:24.864Z,48.90
2017-06-01T10:34:54.064Z,44.90
2017-06-01T10:37:23.285Z,46.50
2017-06-01T10:39:52.497Z,45.80
2017-06-01T10:42:21.791Z,45.40
2017-06-01T10:44:51.033Z,44.40
2017-06-01T10:47:20.239Z,44.80
2017-06-01T10:49:49.460Z,45.20
2017-06-01T10:52:18.676Z,46.00
2017-06-01T10:54:47.123Z,46.00
2017-06-01T10:57:16.330Z,48.50
2017-06-01T10:59:45.549Z,44.20
2017-06-01T11:02:14.748Z,50.20
2017-06-01T11:04:43.964Z,50.60
2017-06-01T11:07:13.195Z,46.40
2017-06-01T11:09:42.416Z,46.90
2017-06-01T11:12:11.619Z,42.90
2017-06-01T11:14:40.832Z,42.60
2017-06-01T11:17:10.028Z,43.30
2017-06-01T11:19:39.263Z,44.10
2017-06-01T11:22:08.468Z,44.50
2017-06-01T11:24:38.387Z,47.00
2017-06-01T11:27:06.847Z,47.00
2017-06-01T11:29:35.277Z,48.20
2017-06-01T11:32:04.499Z,44.20
2017-06-01T11:34:33.880Z,44.10
2017-06-01T11:37:03.787Z,43.80
2017-06-01T11:39:32.349Z,43.90
2017-06-01T11:42:00.795Z,43.00
2017-06-01T11:44:30.704Z,43.70
2017-06-01T11:47:00.007Z,42.30
2017-06-01T11:49:29.243Z,44.10
2017-06-01T11:51:58.448Z,43.30
2017-06-01T11:54:27.671Z,44.00
2017-06-01T11:56:56.872Z,44.30
2017-06-01T11:59:26.119Z,45.20
2017-06-01T12:01:55.315Z,43.30
2017-06-01T12:04:24.537Z,42.30
2017-06-01T12:06:53.755Z,42.10
2017-06-01T12:09:22.948Z,41.90
2017-06-01T12:11:52.180Z,41.40
2017-06-01T12:14:21.412Z,41.00
2017-06-01T12:16:50.663Z,45.60
2017-06-01T12:19:19.902Z,45.00
2017-06-01T12:21:49.107Z,49.80
2017-06-01T12:24:18.327Z,44.40
2017-06-01T12:26:47.631Z,44.80
2017-06-01T12:29:17.652Z,41.20
2017-06-01T12:31:46.848Z,41.50
2017-06-01T12:34:16.252Z,37.40
2017-06-01T12:36:45.524Z,38.00
2017-06-01T12:39:14.739Z,39.40
2017-06-01T12:41:43.944Z,41.00
2017-06-01T12:44:13.171Z,40.00
2017-06-01T12:46:42.383Z,40.20
2017-06-01T12:49:11.623Z,39.40
2017-06-01T12:51:40.917Z,40.00
2017-06-01T12:54:10.239Z,37.80
2017-06-01T12:56:39.436Z,38.70
2017-06-01T12:59:08.667Z,41.00
2017-06-01T13:01:37.879Z,39.50
2017-06-01T13:04:07.196Z,37.90
2017-06-01T13:06:36.402Z,38.70
2017-06-01T13:09:06.290Z,37.20
2017-06-01T13:11:35.728Z,37.10
2017-06-01T13:14:04.932Z,39.20
2017-06-01T13:16:34.147Z,36.80
2017-06-01T13:19:02.591Z,36.60
2017-06-01T13:21:31.823Z,36.50
2017-06-01T13:24:01.042Z,37.90
2017-06-01T13:26:30.341Z,36.20
2017-06-01T13:28:59.549Z,34.40
2017-06-01T13:31:28.807Z,36.00
2017-06-01T13:33:58.000Z,35.70
2017-06-01T13:36:27.204Z,35.80
2017-06-01T13:38:56.415Z,36.30
2017-06-01T13:41:25.616Z,36.60
2017-06-01T13:43:54.820Z,35.90
2017-06-01T13:46:24.049Z,35.20
2017-06-01T13:48:53.243Z,35.70
2017-06-01T13:51:22.439Z,34.30
2017-06-01T13:53:51.658Z,34.40
2017-06-01T13:56:20.885Z,35.40
2017-06-01T13:58:50.106Z,34.20
2017-06-01T14:01:19.296Z,35.70
2017-06-01T14:03:48.495Z,33.40
2017-06-01T14:06:17.711Z,34.30
2017-06-01T14:08:46.926Z,34.00
2017-06-01T14:11:16.242Z,34.30
2017-06-01T14:13:45.458Z,34.90
2017-06-01T14:16:14.676Z,35.50
2017-06-01T14:18:43.870Z,33.20
2017-06-01T14:21:13.075Z,35.20
2017-06-01T14:23:42.297Z,33.80
2017-06-01T14:26:12.199Z,35.30
2017-06-01T14:28:41.412Z,33.00
2017-06-01T14:31:09.844Z,33.00
2017-06-01T14:33:39.032Z,34.10
2017-06-01T14:36:07.487Z,34.10
2017-06-01T14:38:36.707Z,34.70
2017-06-01T14:41:05.156Z,34.50
2017-06-01T14:43:34.355Z,35.20
2017-06-01T14:46:03.571Z,33.20
2017-06-01T14:48:32.799Z,37.00
2017-06-01T14:51:02.024Z,33.60
2017-06-01T14:53:31.243Z,33.70
2017-06-01T14:55:59.675Z,33.70
2017-06-01T14:58:28.896Z,35.10
2017-06-01T15:00:58.131Z,37.40
2017-06-01T15:03:27.335Z,31.90
2017-06-01T15:05:56.527Z,32.20
2017-06-01T15:08:24.987Z,32.20
2017-06-01T15:10:53.493Z,32.20
2017-06-01T15:13:22.710Z,33.20
2017-06-01T15:15:51.936Z,35.00
2017-06-01T15:18:21.178Z,32.60
2017-06-01T15:20:50.422Z,32.70
2017-06-01T15:23:19.645Z,33.40
2017-06-01T15:25:48.859Z,33.10
2017-06-01T15:28:18.003Z,33.00
2017-06-01T15:30:47.240Z,32.70
2017-06-01T15:33:16.439Z,33.00
2017-06-01T15:35:45.768Z,31.80
2017-06-01T15:38:14.963Z,33.50
2017-06-01T15:40:44.212Z,31.90
2017-06-01T15:43:13.416Z,31.00
2017-06-01T15:45:42.860Z,31.50
2017-06-01T15:48:12.060Z,32.00
2017-06-01T15:50:41.287Z,31.90
2017-06-01T15:53:10.503Z,32.30
2017-06-01T15:55:39.716Z,32.50
2017-06-01T15:58:08.919Z,33.20
2017-06-01T16:00:38.142Z,32.20
2017-06-01T16:03:07.192Z,31.60
2017-06-01T16:05:36.383Z,31.40
2017-06-01T16:08:05.624Z,32.50
2017-06-01T16:10:34.836Z,31.50
2017-06-01T16:13:04.087Z,32.20
2017-06-01T16:15:33.325Z,31.60
2017-06-01T16:18:02.626Z,33.10
2017-06-01T16:20:31.084Z,33.10
2017-06-01T16:23:00.326Z,31.40
2017-06-01T16:25:29.547Z,32.20
2017-06-01T16:27:58.011Z,32.10
2017-06-01T16:30:26.473Z,31.50
2017-06-01T16:32:55.683Z,32.50
2017-06-01T16:35:24.882Z,32.50
2017-06-01T16:37:53.388Z,32.50
2017-06-01T16:40:21.844Z,33.30
2017-06-01T16:42:51.053Z,32.80
2017-06-01T16:45:19.515Z,32.70
2017-06-01T16:47:47.976Z,33.60
2017-06-01T16:50:17.198Z,33.00
2017-06-01T16:52:46.479Z,33.80
2017-06-01T16:55:15.676Z,33.80
2017-06-01T16:57:44.944Z,33.60
2017-06-01T17:00:14.156Z,35.40
2017-06-01T17:02:43.360Z,33.70
2017-06-01T17:05:12.589Z,34.00
2017-06-01T17:07:41.803Z,33.20
2017-06-01T17:10:10.259Z,33.10
2017-06-01T17:12:39.488Z,33.30
2017-06-01T17:15:08.722Z,33.30
2017-06-01T17:17:37.168Z,33.30
2017-06-01T17:20:05.603Z,33.40
2017-06-01T17:22:34.815Z,33.80
2017-06-01T17:25:04.031Z,35.80
2017-06-01T17:27:33.266Z,34.30
2017-06-01T17:30:01.782Z,34.10
2017-06-01T17:32:31.105Z,34.50
2017-06-01T17:35:00.395Z,35.90
2017-06-01T17:37:29.612Z,35.20
2017-06-01T17:39:58.803Z,35.70
2017-06-01T17:42:27.995Z,34.90
2017-06-01T17:44:57.252Z,35.10
2017-06-01T17:47:26.463Z,35.90
2017-06-01T17:49:55.679Z,36.70
2017-06-01T17:52:24.907Z,36.90
2017-06-01T17:54:54.115Z,37.70
2017-06-01T17:57:23.334Z,37.70
2017-06-01T17:59:52.645Z,39.00
2017-06-01T18:02:21.868Z,38.90
2017-06-01T18:04:51.116Z,39.30
2017-06-01T18:07:20.346Z,39.30
2017-06-01T18:09:49.558Z,39.00
2017-06-01T18:12:18.780Z,39.30
2017-06-01T18:14:47.981Z,40.40
2017-06-01T18:17:17.189Z,39.50
2017-06-01T18:19:46.407Z,40.10
2017-06-01T18:22:15.631Z,39.80
2017-06-01T18:24:44.108Z,39.70
2017-06-01T18:27:13.331Z,40.10
2017-06-01T18:29:42.543Z,40.20
2017-06-01T18:32:10.979Z,40.20
2017-06-01T18:34:40.197Z,40.90
2017-06-01T18:37:09.396Z,41.00
2017-06-01T18:39:38.588Z,41.40
2017-06-01T18:42:07.823Z,41.70
2017-06-01T18:44:37.023Z,42.10
2017-06-01T18:47:06.239Z,42.40
2017-06-01T18:49:35.478Z,43.20
2017-06-01T18:52:04.699Z,43.20
2017-06-01T18:54:33.943Z,43.10
2017-06-01T18:57:03.176Z,44.00
2017-06-01T18:59:32.416Z,44.40
2017-06-01T19:02:01.629Z,44.30
2017-06-01T19:04:30.828Z,44.30
2017-06-01T19:07:00.044Z,44.70
2017-06-01T19:09:29.269Z,44.80
2017-06-01T19:11:58.491Z,45.20
2017-06-01T19:14:27.697Z,45.60
2017-06-01T19:16:56.918Z,45.90
2017-06-01T19:19:26.126Z,46.10
2017-06-01T19:21:55.319Z,46.20
2017-06-01T19:24:24.563Z,46.90
2017-06-01T19:26:53.791Z,46.80
2017-06-01T19:29:23.080Z,46.90
2017-06-01T19:31:52.292Z,47.20
2017-06-01T19:34:21.501Z,47.40
2017-06-01T19:36:50.728Z,48.30
2017-06-01T19:39:19.967Z,48.20
2017-06-01T19:41:49.193Z,47.80
2017-06-01T19:44:18.477Z,48.20
2017-06-01T19:46:47.674Z,48.70
2017-06-01T19:49:16.977Z,50.50
2017-06-01T19:51:46.199Z,49.70
2017-06-01T19:54:15.429Z,51.00
2017-06-01T19:56:44.641Z,50.20
2017-06-01T19:59:13.863Z,50.30
2017-06-01T20:01:43.061Z,50.60
2017-06-01T20:04:12.296Z,50.60
2017-06-01T20:06:41.512Z,52.00
2017-06-01T20:09:10.702Z,53.40
2017-06-01T20:11:39.911Z,53.60
2017-06-01T20:14:09.134Z,54.50
2017-06-01T20:16:38.348Z,54.30
2017-06-01T20:19:07.578Z,55.50
2017-06-01T20:21:36.885Z,55.10
2017-06-01T20:24:06.111Z,54.60
2017-06-01T20:26:35.311Z,56.20
2017-06-01T20:29:04.609Z,55.60
2017-06-01T20:31:33.972Z,56.20
2017-06-01T20:34:03.269Z,56.50
2017-06-01T20:36:32.500Z,56.30
2017-06-01T20:39:01.704Z,56.50
2017-06-01T20:41:31.075Z,56.80
2017-06-01T20:44:00.291Z,57.70
2017-06-01T20:46:29.507Z,58.30
2017-06-01T20:48:58.753Z,58.60
2017-06-01T20:51:27.961Z,58.50
2017-06-01T20:53:57.181Z,58.60
2017-06-01T20:56:26.398Z,59.00
2017-06-01T20:58:55.615Z,60.10
2017-06-01T21:01:24.889Z,60.50
2017-06-01T21:03:54.087Z,60.50
2017-06-01T21:06:23.994Z,59.90
2017-06-01T21:08:53.415Z,60.10
2017-06-01T21:11:22.616Z,60.20
2017-06-01T21:13:51.911Z,59.90
2017-06-01T21:16:21.214Z,59.80
2017-06-01T21:18:50.471Z,60.50
2017-06-01T21:21:19.981Z,59.90
2017-06-01T21:23:49.278Z,59.80
2017-06-01T21:26:18.559Z,59.30
2017-06-01T21:28:47.751Z,60.80
2017-06-01T21:31:16.987Z,63.70
2017-06-01T21:33:46.891Z,63.90
2017-06-01T21:36:16.098Z,63.60
2017-06-01T21:38:45.323Z,63.00
2017-06-01T21:41:14.549Z,63.20
2017-06-01T21:43:43.759Z,64.40
2017-06-01T21:46:13.017Z,64.50
2017-06-01T21:48:42.226Z,64.70
2017-06-01T21:51:11.451Z,65.30
2017-06-01T21:53:40.650Z,65.90
2017-06-01T21:56:09.860Z,66.30
2017-06-01T21:58:39.080Z,67.20
2017-06-01T22:01:08.302Z,67.30
2017-06-01T22:03:37.631Z,67.30
2017-06-01T22:06:06.850Z,66.40
2017-06-01T22:08:36.075Z,66.60
2017-06-01T22:11:05.283Z,66.80
2017-06-01T22:13:34.511Z,67.30
2017-06-01T22:16:03.715Z,66.80
2017-06-01T22:18:32.915Z,66.90
2017-06-01T22:21:02.143Z,66.10
2017-06-01T22:23:31.409Z,66.90
2017-06-01T22:26:00.680Z,68.60
2017-06-01T22:28:29.895Z,69.00
2017-06-01T22:30:59.103Z,69.40
2017-06-01T22:33:28.304Z,69.50
2017-06-01T22:35:57.511Z,68.70
2017-06-01T22:38:26.807Z,68.20
2017-06-01T22:40:56.031Z,68.40
2017-06-01T22:43:25.237Z,68.40
2017-06-01T22:45:54.442Z,69.80
2017-06-01T22:48:23.657Z,72.90
2017-06-01T22:50:52.852Z,73.40
2017-06-01T22:53:22.069Z,73.70
2017-06-01T22:55:51.298Z,73.10
2017-06-01T22:58:20.600Z,70.20
2017-06-01T23:00:49.816Z,70.20
2017-06-01T23:03:19.061Z,70.20
2017-06-01T23:05:48.260Z,71.40
2017-06-01T23:08:17.488Z,71.10
2017-06-01T23:10:46.684Z,72.00
2017-06-01T23:13:15.900Z,73.70
2017-06-01T23:15:45.148Z,75.10
2017-06-01T23:18:14.365Z,76.10
2017-06-01T23:20:43.559Z,76.80
2017-06-01T23:23:12.767Z,75.90
2017-06-01T23:25:41.987Z,73.70
2017-06-01T23:28:11.196Z,69.60
2017-06-01T23:30:40.397Z,69.20
2017-06-01T23:33:09.605Z,69.30
2017-06-01T23:35:38.814Z,68.80
2017-06-01T23:38:08.025Z,71.00
2017-06-01T23:40:37.251Z,71.40
2017-06-01T23:43:06.463Z,73.20
2017-06-01T23:45:35.667Z,73.60
2017-06-01T23:48:04.878Z,75.00
2017-06-01T23:50:34.103Z,76.30
2017-06-01T23:53:03.298Z,75.50
2017-06-01T23:55:32.651Z,72.30
2017-06-01T23:58:02.541Z,72.70
